Terminal Aerodrome Forecast
Issued by NWS Blacksburg, VA

Home | Current Version | Previous Version | Text Only | Print | Product List | Glossary On
Versions: 1 2 3 4 5 6 7 8 9 10 11 12 13 14 15 16 17 18 19 20 21 22 23 24 25 26 27 28 29 30 31 32 33 34 35
000
FTUS41 KRNK 260538
TAFROA
TAF
KROA 260538Z 2606/2706 15003KT P6SM SCT026 OVC035
      TEMPO 2608/2610 OVC026
     FM261100 24005KT P6SM SCT080 BKN250
     FM261700 27008KT P6SM BKN060
     FM262300 29004KT P6SM BKN250=

USA.gov is the U.S. government's official web portal to all federal, state and local government web resources and services.